sensor_id;sensor_type;location;lat;lon;timestamp;P1;durP1;ratioP1;P2;durP2;ratioP2
47866;SDS011;33628;50.806;11.586;2022-11-06T00:00:34;33.38;;;13.80;;
47866;SDS011;33628;50.806;11.586;2022-11-06T00:03:01;32.97;;;14.55;;
47866;SDS011;33628;50.806;11.586;2022-11-06T00:05:29;54.15;;;15.27;;
47866;SDS011;33628;50.806;11.586;2022-11-06T00:08:32;84.60;;;16.48;;
47866;SDS011;33628;50.806;11.586;2022-11-06T00:11:15;84.80;;;15.07;;
47866;SDS011;33628;50.806;11.586;2022-11-06T00:13:59;116.00;;;17.80;;
47866;SDS011;33628;50.806;11.586;2022-11-06T00:16:48;104.88;;;14.30;;
47866;SDS011;33628;50.806;11.586;2022-11-06T00:19:15;107.03;;;15.40;;
47866;SDS011;33628;50.806;11.586;2022-11-06T00:21:42;151.25;;;16.15;;
47866;SDS011;33628;50.806;11.586;2022-11-06T00:24:12;126.32;;;13.98;;
47866;SDS011;33628;50.806;11.586;2022-11-06T00:26:40;94.97;;;13.80;;
47866;SDS011;33628;50.806;11.586;2022-11-06T00:29:09;118.07;;;14.35;;
47866;SDS011;33628;50.806;11.586;2022-11-06T00:31:38;155.65;;;16.77;;
47866;SDS011;33628;50.806;11.586;2022-11-06T00:34:04;263.23;;;17.52;;
47866;SDS011;33628;50.806;11.586;2022-11-06T00:36:32;205.23;;;15.45;;
47866;SDS011;33628;50.806;11.586;2022-11-06T00:38:59;152.25;;;13.07;;
47866;SDS011;33628;50.806;11.586;2022-11-06T00:41:27;195.93;;;16.80;;
47866;SDS011;33628;50.806;11.586;2022-11-06T00:43:54;326.15;;;17.70;;
47866;SDS011;33628;50.806;11.586;2022-11-06T00:46:21;192.98;;;15.20;;
47866;SDS011;33628;50.806;11.586;2022-11-06T00:48:48;224.77;;;14.93;;
47866;SDS011;33628;50.806;11.586;2022-11-06T00:51:16;231.43;;;16.63;;
47866;SDS011;33628;50.806;11.586;2022-11-06T00:53:43;188.73;;;15.65;;
47866;SDS011;33628;50.806;11.586;2022-11-06T00:56:11;297.08;;;15.48;;
47866;SDS011;33628;50.806;11.586;2022-11-06T00:58:39;176.98;;;12.57;;
47866;SDS011;33628;50.806;11.586;2022-11-06T01:01:07;177.15;;;13.45;;
47866;SDS011;33628;50.806;11.586;2022-11-06T01:03:34;178.23;;;11.48;;
47866;SDS011;33628;50.806;11.586;2022-11-06T01:06:05;181.60;;;13.73;;
47866;SDS011;33628;50.806;11.586;2022-11-06T01:08:33;166.18;;;10.90;;
47866;SDS011;33628;50.806;11.586;2022-11-06T01:11:04;82.97;;;11.65;;
47866;SDS011;33628;50.806;11.586;2022-11-06T01:13:32;95.10;;;11.48;;
47866;SDS011;33628;50.806;11.586;2022-11-06T01:16:00;132.77;;;14.05;;
47866;SDS011;33628;50.806;11.586;2022-11-06T01:18:27;104.95;;;13.98;;
47866;SDS011;33628;50.806;11.586;2022-11-06T01:20:53;93.90;;;12.18;;
47866;SDS011;33628;50.806;11.586;2022-11-06T01:23:20;59.10;;;11.30;;
47866;SDS011;33628;50.806;11.586;2022-11-06T01:25:54;78.40;;;10.45;;
47866;SDS011;33628;50.806;11.586;2022-11-06T01:28:21;53.65;;;9.98;;
47866;SDS011;33628;50.806;11.586;2022-11-06T01:30:48;83.45;;;11.50;;
47866;SDS011;33628;50.806;11.586;2022-11-06T01:33:15;95.82;;;12.55;;
47866;SDS011;33628;50.806;11.586;2022-11-06T01:35:43;45.25;;;10.18;;
47866;SDS011;33628;50.806;11.586;2022-11-06T01:38:09;49.70;;;11.35;;
47866;SDS011;33628;50.806;11.586;2022-11-06T01:40:38;52.67;;;11.00;;
47866;SDS011;33628;50.806;11.586;2022-11-06T01:43:07;48.63;;;11.27;;
47866;SDS011;33628;50.806;11.586;2022-11-06T01:45:37;97.55;;;13.85;;
47866;SDS011;33628;50.806;11.586;2022-11-06T01:48:04;116.68;;;13.25;;
47866;SDS011;33628;50.806;11.586;2022-11-06T01:50:32;75.10;;;13.00;;
47866;SDS011;33628;50.806;11.586;2022-11-06T01:52:58;78.63;;;13.35;;
47866;SDS011;33628;50.806;11.586;2022-11-06T01:55:28;87.57;;;13.98;;
47866;SDS011;33628;50.806;11.586;2022-11-06T01:57:56;99.05;;;12.75;;
47866;SDS011;33628;50.806;11.586;2022-11-06T02:00:26;78.18;;;12.18;;
47866;SDS011;33628;50.806;11.586;2022-11-06T02:02:53;50.65;;;12.50;;
47866;SDS011;33628;50.806;11.586;2022-11-06T02:05:20;38.00;;;11.23;;
47866;SDS011;33628;50.806;11.586;2022-11-06T02:07:48;92.00;;;13.07;;
47866;SDS011;33628;50.806;11.586;2022-11-06T02:10:15;66.45;;;12.27;;
47866;SDS011;33628;50.806;11.586;2022-11-06T02:12:44;45.55;;;12.13;;
47866;SDS011;33628;50.806;11.586;2022-11-06T02:15:26;93.47;;;12.88;;
47866;SDS011;33628;50.806;11.586;2022-11-06T02:46:51;94.20;;;12.07;;
47866;SDS011;33628;50.806;11.586;2022-11-06T02:49:20;107.68;;;10.70;;
47866;SDS011;33628;50.806;11.586;2022-11-06T02:51:49;239.70;;;18.98;;
47866;SDS011;33628;50.806;11.586;2022-11-06T02:54:20;152.30;;;12.43;;
47866;SDS011;33628;50.806;11.586;2022-11-06T02:56:48;73.43;;;10.55;;
47866;SDS011;33628;50.806;11.586;2022-11-06T02:59:17;289.33;;;15.48;;
47866;SDS011;33628;50.806;11.586;2022-11-06T03:01:45;156.43;;;15.40;;
47866;SDS011;33628;50.806;11.586;2022-11-06T03:04:17;194.73;;;15.05;;
47866;SDS011;33628;50.806;11.586;2022-11-06T03:06:47;131.15;;;12.32;;
47866;SDS011;33628;50.806;11.586;2022-11-06T03:09:18;172.70;;;12.77;;
47866;SDS011;33628;50.806;11.586;2022-11-06T03:11:47;118.90;;;13.55;;
47866;SDS011;33628;50.806;11.586;2022-11-06T03:14:17;114.32;;;13.25;;
47866;SDS011;33628;50.806;11.586;2022-11-06T03:16:49;65.85;;;11.27;;
47866;SDS011;33628;50.806;11.586;2022-11-06T03:19:22;76.07;;;11.27;;
47866;SDS011;33628;50.806;11.586;2022-11-06T03:21:55;120.70;;;11.77;;
47866;SDS011;33628;50.806;11.586;2022-11-06T03:24:29;146.82;;;12.82;;
47866;SDS011;33628;50.806;11.586;2022-11-06T03:27:01;110.10;;;13.48;;
47866;SDS011;33628;50.806;11.586;2022-11-06T03:29:32;107.35;;;12.80;;
47866;SDS011;33628;50.806;11.586;2022-11-06T03:32:04;116.40;;;11.85;;
47866;SDS011;33628;50.806;11.586;2022-11-06T03:34:37;62.97;;;10.30;;
47866;SDS011;33628;50.806;11.586;2022-11-06T03:37:09;82.00;;;10.85;;
47866;SDS011;33628;50.806;11.586;2022-11-06T03:39:40;111.63;;;10.15;;
47866;SDS011;33628;50.806;11.586;2022-11-06T03:42:09;171.93;;;12.98;;
47866;SDS011;33628;50.806;11.586;2022-11-06T03:44:39;149.55;;;16.25;;
47866;SDS011;33628;50.806;11.586;2022-11-06T03:47:09;195.23;;;17.33;;
47866;SDS011;33628;50.806;11.586;2022-11-06T03:49:40;168.15;;;12.68;;
47866;SDS011;33628;50.806;11.586;2022-11-06T03:52:10;138.27;;;13.10;;
47866;SDS011;33628;50.806;11.586;2022-11-06T03:54:38;155.00;;;12.95;;
47866;SDS011;33628;50.806;11.586;2022-11-06T03:57:08;114.13;;;11.60;;
47866;SDS011;33628;50.806;11.586;2022-11-06T03:59:38;118.30;;;12.70;;
47866;SDS011;33628;50.806;11.586;2022-11-06T04:02:09;80.15;;;11.07;;
47866;SDS011;33628;50.806;11.586;2022-11-06T04:04:40;136.80;;;12.35;;
47866;SDS011;33628;50.806;11.586;2022-11-06T04:07:10;101.97;;;11.48;;
47866;SDS011;33628;50.806;11.586;2022-11-06T04:09:39;161.60;;;13.00;;
47866;SDS011;33628;50.806;11.586;2022-11-06T04:12:26;122.22;;;10.57;;
47866;SDS011;33628;50.806;11.586;2022-11-06T04:15:30;147.43;;;10.95;;
47866;SDS011;33628;50.806;11.586;2022-11-06T04:17:58;152.93;;;13.52;;
47866;SDS011;33628;50.806;11.586;2022-11-06T04:20:26;95.57;;;11.77;;
47866;SDS011;33628;50.806;11.586;2022-11-06T04:23:18;91.82;;;10.48;;
47866;SDS011;33628;50.806;11.586;2022-11-06T04:25:52;96.40;;;12.48;;
47866;SDS011;33628;50.806;11.586;2022-11-06T04:28:42;79.22;;;11.18;;
47866;SDS011;33628;50.806;11.586;2022-11-06T04:31:14;100.63;;;10.55;;
47866;SDS011;33628;50.806;11.586;2022-11-06T04:33:45;68.93;;;9.30;;
47866;SDS011;33628;50.806;11.586;2022-11-06T04:36:16;95.30;;;11.05;;
47866;SDS011;33628;50.806;11.586;2022-11-06T04:38:50;75.10;;;9.20;;
47866;SDS011;33628;50.806;11.586;2022-11-06T04:41:20;58.78;;;9.07;;
47866;SDS011;33628;50.806;11.586;2022-11-06T04:43:53;120.88;;;10.77;;
47866;SDS011;33628;50.806;11.586;2022-11-06T04:46:22;91.45;;;9.68;;
47866;SDS011;33628;50.806;11.586;2022-11-06T04:48:52;68.72;;;8.98;;
47866;SDS011;33628;50.806;11.586;2022-11-06T04:51:22;65.57;;;11.57;;
47866;SDS011;33628;50.806;11.586;2022-11-06T04:53:50;65.32;;;11.90;;
47866;SDS011;33628;50.806;11.586;2022-11-06T04:56:20;54.05;;;10.48;;
47866;SDS011;33628;50.806;11.586;2022-11-06T04:58:50;47.63;;;11.98;;
47866;SDS011;33628;50.806;11.586;2022-11-06T05:01:17;59.17;;;11.25;;
47866;SDS011;33628;50.806;11.586;2022-11-06T05:03:43;66.15;;;10.93;;
47866;SDS011;33628;50.806;11.586;2022-11-06T05:06:10;66.13;;;9.45;;
47866;SDS011;33628;50.806;11.586;2022-11-06T05:08:38;112.40;;;13.02;;
47866;SDS011;33628;50.806;11.586;2022-11-06T05:11:04;104.15;;;11.25;;
47866;SDS011;33628;50.806;11.586;2022-11-06T05:13:31;109.68;;;10.07;;
47866;SDS011;33628;50.806;11.586;2022-11-06T05:15:57;127.05;;;11.60;;
47866;SDS011;33628;50.806;11.586;2022-11-06T05:18:25;113.57;;;12.40;;
47866;SDS011;33628;50.806;11.586;2022-11-06T05:20:52;230.05;;;14.68;;
47866;SDS011;33628;50.806;11.586;2022-11-06T05:23:39;168.30;;;13.75;;
47866;SDS011;33628;50.806;11.586;2022-11-06T05:26:06;98.32;;;11.48;;
47866;SDS011;33628;50.806;11.586;2022-11-06T05:28:33;120.93;;;12.30;;
47866;SDS011;33628;50.806;11.586;2022-11-06T05:30:59;181.23;;;15.30;;
47866;SDS011;33628;50.806;11.586;2022-11-06T05:33:26;131.02;;;13.60;;
47866;SDS011;33628;50.806;11.586;2022-11-06T05:35:53;182.18;;;13.05;;
47866;SDS011;33628;50.806;11.586;2022-11-06T05:38:19;138.98;;;13.15;;
47866;SDS011;33628;50.806;11.586;2022-11-06T05:40:50;232.20;;;15.55;;
47866;SDS011;33628;50.806;11.586;2022-11-06T05:43:17;142.32;;;15.23;;
47866;SDS011;33628;50.806;11.586;2022-11-06T05:45:44;157.50;;;14.23;;
47866;SDS011;33628;50.806;11.586;2022-11-06T05:48:10;182.55;;;17.10;;
47866;SDS011;33628;50.806;11.586;2022-11-06T05:50:37;127.88;;;13.68;;
47866;SDS011;33628;50.806;11.586;2022-11-06T05:55:40;111.38;;;13.07;;
47866;SDS011;33628;50.806;11.586;2022-11-06T05:58:08;72.22;;;10.98;;
47866;SDS011;33628;50.806;11.586;2022-11-06T06:00:34;96.57;;;13.05;;
47866;SDS011;33628;50.806;11.586;2022-11-06T06:03:01;64.30;;;12.57;;
47866;SDS011;33628;50.806;11.586;2022-11-06T06:05:27;153.50;;;14.32;;
47866;SDS011;33628;50.806;11.586;2022-11-06T06:07:54;58.17;;;11.85;;
47866;SDS011;33628;50.806;11.586;2022-11-06T06:10:20;140.23;;;17.80;;
47866;SDS011;33628;50.806;11.586;2022-11-06T06:12:47;133.20;;;14.05;;
47866;SDS011;33628;50.806;11.586;2022-11-06T06:15:15;123.45;;;14.20;;
47866;SDS011;33628;50.806;11.586;2022-11-06T06:17:42;66.43;;;11.73;;
47866;SDS011;33628;50.806;11.586;2022-11-06T06:20:10;100.45;;;11.40;;
47866;SDS011;33628;50.806;11.586;2022-11-06T06:22:37;245.35;;;22.23;;
47866;SDS011;33628;50.806;11.586;2022-11-06T06:25:03;132.35;;;11.68;;
47866;SDS011;33628;50.806;11.586;2022-11-06T06:27:30;121.47;;;10.95;;
47866;SDS011;33628;50.806;11.586;2022-11-06T06:29:57;148.10;;;12.43;;
47866;SDS011;33628;50.806;11.586;2022-11-06T06:32:25;105.80;;;11.40;;
47866;SDS011;33628;50.806;11.586;2022-11-06T06:34:51;143.57;;;13.77;;
47866;SDS011;33628;50.806;11.586;2022-11-06T06:37:17;97.20;;;10.18;;
47866;SDS011;33628;50.806;11.586;2022-11-06T06:39:44;169.35;;;17.13;;
47866;SDS011;33628;50.806;11.586;2022-11-06T06:42:10;133.55;;;14.18;;
47866;SDS011;33628;50.806;11.586;2022-11-06T06:44:37;56.17;;;11.20;;
47866;SDS011;33628;50.806;11.586;2022-11-06T06:47:03;64.00;;;10.70;;
47866;SDS011;33628;50.806;11.586;2022-11-06T06:49:31;94.20;;;11.65;;
47866;SDS011;33628;50.806;11.586;2022-11-06T06:51:57;84.43;;;11.27;;
47866;SDS011;33628;50.806;11.586;2022-11-06T06:54:24;64.07;;;10.90;;
47866;SDS011;33628;50.806;11.586;2022-11-06T06:56:50;71.10;;;10.93;;
47866;SDS011;33628;50.806;11.586;2022-11-06T06:59:20;62.97;;;22.42;;
47866;SDS011;33628;50.806;11.586;2022-11-06T07:01:46;146.75;;;15.02;;
47866;SDS011;33628;50.806;11.586;2022-11-06T07:04:13;126.80;;;14.18;;
47866;SDS011;33628;50.806;11.586;2022-11-06T07:06:40;65.28;;;11.70;;
47866;SDS011;33628;50.806;11.586;2022-11-06T07:09:07;47.85;;;9.85;;
47866;SDS011;33628;50.806;11.586;2022-11-06T07:11:34;39.00;;;9.27;;
47866;SDS011;33628;50.806;11.586;2022-11-06T07:14:00;35.67;;;10.68;;
47866;SDS011;33628;50.806;11.586;2022-11-06T07:16:27;17.38;;;9.85;;
47866;SDS011;33628;50.806;11.586;2022-11-06T07:18:54;18.25;;;9.93;;
47866;SDS011;33628;50.806;11.586;2022-11-06T07:21:21;18.00;;;12.35;;
47866;SDS011;33628;50.806;11.586;2022-11-06T07:23:49;21.13;;;14.43;;
47866;SDS011;33628;50.806;11.586;2022-11-06T07:26:15;29.52;;;17.60;;
47866;SDS011;33628;50.806;11.586;2022-11-06T07:28:43;28.42;;;16.08;;
47866;SDS011;33628;50.806;11.586;2022-11-06T07:31:09;27.88;;;14.18;;
47866;SDS011;33628;50.806;11.586;2022-11-06T07:33:37;22.15;;;11.68;;
47866;SDS011;33628;50.806;11.586;2022-11-06T07:36:04;20.08;;;12.80;;
47866;SDS011;33628;50.806;11.586;2022-11-06T07:38:32;18.08;;;12.45;;
47866;SDS011;33628;50.806;11.586;2022-11-06T07:41:04;21.70;;;16.08;;
47866;SDS011;33628;50.806;11.586;2022-11-06T07:43:32;17.73;;;13.30;;
47866;SDS011;33628;50.806;11.586;2022-11-06T07:45:58;14.90;;;10.77;;
47866;SDS011;33628;50.806;11.586;2022-11-06T07:48:26;18.88;;;11.57;;
47866;SDS011;33628;50.806;11.586;2022-11-06T07:50:52;16.50;;;11.77;;
47866;SDS011;33628;50.806;11.586;2022-11-06T07:53:19;18.67;;;11.88;;
47866;SDS011;33628;50.806;11.586;2022-11-06T07:55:49;13.82;;;9.52;;
47866;SDS011;33628;50.806;11.586;2022-11-06T07:58:16;18.90;;;10.40;;
47866;SDS011;33628;50.806;11.586;2022-11-06T08:00:46;14.18;;;10.48;;
47866;SDS011;33628;50.806;11.586;2022-11-06T08:03:12;16.65;;;11.80;;
47866;SDS011;33628;50.806;11.586;2022-11-06T08:05:39;18.67;;;12.43;;
47866;SDS011;33628;50.806;11.586;2022-11-06T08:08:06;23.08;;;11.90;;
47866;SDS011;33628;50.806;11.586;2022-11-06T08:10:32;16.33;;;11.30;;
47866;SDS011;33628;50.806;11.586;2022-11-06T08:13:02;12.25;;;9.85;;
47866;SDS011;33628;50.806;11.586;2022-11-06T08:15:30;15.48;;;8.82;;
47866;SDS011;33628;50.806;11.586;2022-11-06T08:17:57;16.65;;;10.18;;
47866;SDS011;33628;50.806;11.586;2022-11-06T08:20:23;12.60;;;8.95;;
47866;SDS011;33628;50.806;11.586;2022-11-06T08:22:50;9.80;;;7.10;;
47866;SDS011;33628;50.806;11.586;2022-11-06T08:25:17;8.70;;;6.90;;
47866;SDS011;33628;50.806;11.586;2022-11-06T08:27:43;7.53;;;6.72;;
47866;SDS011;33628;50.806;11.586;2022-11-06T08:30:10;7.80;;;6.70;;
47866;SDS011;33628;50.806;11.586;2022-11-06T08:32:38;6.85;;;6.13;;
47866;SDS011;33628;50.806;11.586;2022-11-06T08:35:05;7.30;;;6.38;;
47866;SDS011;33628;50.806;11.586;2022-11-06T08:37:32;7.15;;;6.45;;
47866;SDS011;33628;50.806;11.586;2022-11-06T08:39:59;7.65;;;6.40;;
47866;SDS011;33628;50.806;11.586;2022-11-06T08:42:25;8.13;;;7.32;;
47866;SDS011;33628;50.806;11.586;2022-11-06T08:44:52;9.23;;;6.53;;
47866;SDS011;33628;50.806;11.586;2022-11-06T08:47:18;7.13;;;6.43;;
47866;SDS011;33628;50.806;11.586;2022-11-06T08:49:46;7.63;;;6.85;;
47866;SDS011;33628;50.806;11.586;2022-11-06T08:52:12;6.88;;;6.13;;
47866;SDS011;33628;50.806;11.586;2022-11-06T08:54:39;8.60;;;6.82;;
47866;SDS011;33628;50.806;11.586;2022-11-06T08:57:06;12.93;;;9.20;;
47866;SDS011;33628;50.806;11.586;2022-11-06T08:59:32;20.00;;;13.38;;
47866;SDS011;33628;50.806;11.586;2022-11-06T09:01:59;21.67;;;13.35;;
47866;SDS011;33628;50.806;11.586;2022-11-06T09:04:26;17.92;;;11.13;;
47866;SDS011;33628;50.806;11.586;2022-11-06T09:06:56;17.13;;;10.63;;
47866;SDS011;33628;50.806;11.586;2022-11-06T09:09:23;12.00;;;7.75;;
47866;SDS011;33628;50.806;11.586;2022-11-06T09:11:56;9.48;;;5.97;;
47866;SDS011;33628;50.806;11.586;2022-11-06T09:14:23;7.85;;;4.68;;
47866;SDS011;33628;50.806;11.586;2022-11-06T09:16:51;5.72;;;4.38;;
47866;SDS011;33628;50.806;11.586;2022-11-06T09:19:17;8.57;;;3.13;;
47866;SDS011;33628;50.806;11.586;2022-11-06T09:21:45;5.28;;;3.45;;
47866;SDS011;33628;50.806;11.586;2022-11-06T09:24:14;4.95;;;2.70;;
47866;SDS011;33628;50.806;11.586;2022-11-06T09:26:41;5.93;;;2.95;;
47866;SDS011;33628;50.806;11.586;2022-11-06T09:29:07;6.20;;;2.65;;
47866;SDS011;33628;50.806;11.586;2022-11-06T09:31:35;3.33;;;1.90;;
47866;SDS011;33628;50.806;11.586;2022-11-06T09:34:02;3.65;;;2.00;;
47866;SDS011;33628;50.806;11.586;2022-11-06T09:36:29;23.70;;;13.50;;
47866;SDS011;33628;50.806;11.586;2022-11-06T09:38:56;4.75;;;2.45;;
47866;SDS011;33628;50.806;11.586;2022-11-06T09:41:26;5.50;;;2.40;;
47866;SDS011;33628;50.806;11.586;2022-11-06T09:43:59;2.97;;;2.10;;
47866;SDS011;33628;50.806;11.586;2022-11-06T09:46:33;3.08;;;2.00;;
47866;SDS011;33628;50.806;11.586;2022-11-06T09:49:05;4.03;;;2.65;;
47866;SDS011;33628;50.806;11.586;2022-11-06T09:51:38;4.03;;;2.20;;
47866;SDS011;33628;50.806;11.586;2022-11-06T09:54:11;5.15;;;2.40;;
47866;SDS011;33628;50.806;11.586;2022-11-06T09:56:41;5.75;;;3.00;;
47866;SDS011;33628;50.806;11.586;2022-11-06T09:59:10;4.50;;;1.90;;
47866;SDS011;33628;50.806;11.586;2022-11-06T10:01:40;3.42;;;1.98;;
47866;SDS011;33628;50.806;11.586;2022-11-06T10:04:11;2.30;;;1.50;;
47866;SDS011;33628;50.806;11.586;2022-11-06T10:09:10;2.70;;;1.77;;
47866;SDS011;33628;50.806;11.586;2022-11-06T10:11:47;4.43;;;2.10;;
47866;SDS011;33628;50.806;11.586;2022-11-06T10:14:21;2.38;;;1.58;;
47866;SDS011;33628;50.806;11.586;2022-11-06T10:16:57;4.13;;;1.40;;
47866;SDS011;33628;50.806;11.586;2022-11-06T10:19:31;3.90;;;1.90;;
47866;SDS011;33628;50.806;11.586;2022-11-06T10:22:07;4.90;;;1.95;;
47866;SDS011;33628;50.806;11.586;2022-11-06T10:24:38;3.83;;;1.77;;
47866;SDS011;33628;50.806;11.586;2022-11-06T10:27:12;2.42;;;1.30;;
47866;SDS011;33628;50.806;11.586;2022-11-06T10:29:46;4.82;;;1.90;;
47866;SDS011;33628;50.806;11.586;2022-11-06T10:32:31;4.35;;;1.63;;
47866;SDS011;33628;50.806;11.586;2022-11-06T10:35:12;4.43;;;1.50;;
47866;SDS011;33628;50.806;11.586;2022-11-06T10:37:43;3.85;;;1.50;;
47866;SDS011;33628;50.806;11.586;2022-11-06T10:40:14;3.58;;;1.73;;
47866;SDS011;33628;50.806;11.586;2022-11-06T10:42:44;2.85;;;1.45;;
47866;SDS011;33628;50.806;11.586;2022-11-06T10:45:15;3.28;;;1.48;;
47866;SDS011;33628;50.806;11.586;2022-11-06T10:47:42;3.15;;;1.65;;
47866;SDS011;33628;50.806;11.586;2022-11-06T10:50:11;5.22;;;2.42;;
47866;SDS011;33628;50.806;11.586;2022-11-06T10:52:48;3.45;;;2.03;;
47866;SDS011;33628;50.806;11.586;2022-11-06T10:55:30;5.22;;;1.58;;
47866;SDS011;33628;50.806;11.586;2022-11-06T10:58:11;2.70;;;1.65;;
47866;SDS011;33628;50.806;11.586;2022-11-06T11:00:39;3.35;;;1.50;;
47866;SDS011;33628;50.806;11.586;2022-11-06T11:03:10;2.78;;;1.48;;
47866;SDS011;33628;50.806;11.586;2022-11-06T11:05:43;3.58;;;1.48;;
47866;SDS011;33628;50.806;11.586;2022-11-06T11:10:59;2.58;;;1.92;;
47866;SDS011;33628;50.806;11.586;2022-11-06T11:13:28;6.07;;;3.55;;
47866;SDS011;33628;50.806;11.586;2022-11-06T11:15:55;3.58;;;1.50;;
47866;SDS011;33628;50.806;11.586;2022-11-06T11:18:22;6.13;;;2.53;;
47866;SDS011;33628;50.806;11.586;2022-11-06T11:21:06;4.07;;;2.30;;
47866;SDS011;33628;50.806;11.586;2022-11-06T11:23:39;5.00;;;2.10;;
47866;SDS011;33628;50.806;11.586;2022-11-06T11:28:55;4.00;;;2.00;;
47866;SDS011;33628;50.806;11.586;2022-11-06T11:31:26;4.97;;;2.30;;
47866;SDS011;33628;50.806;11.586;2022-11-06T11:33:54;5.63;;;2.83;;
47866;SDS011;33628;50.806;11.586;2022-11-06T11:36:22;3.55;;;2.33;;
47866;SDS011;33628;50.806;11.586;2022-11-06T11:38:48;6.28;;;3.30;;
47866;SDS011;33628;50.806;11.586;2022-11-06T11:41:20;5.30;;;3.05;;
47866;SDS011;33628;50.806;11.586;2022-11-06T11:43:56;8.10;;;2.85;;
47866;SDS011;33628;50.806;11.586;2022-11-06T11:46:29;5.05;;;2.83;;
47866;SDS011;33628;50.806;11.586;2022-11-06T11:48:56;5.40;;;2.28;;
47866;SDS011;33628;50.806;11.586;2022-11-06T11:51:24;3.92;;;2.10;;
47866;SDS011;33628;50.806;11.586;2022-11-06T11:53:54;3.88;;;2.28;;
47866;SDS011;33628;50.806;11.586;2022-11-06T11:56:22;4.95;;;2.83;;
47866;SDS011;33628;50.806;11.586;2022-11-06T11:58:51;5.15;;;3.40;;
47866;SDS011;33628;50.806;11.586;2022-11-06T12:01:29;4.22;;;2.65;;
47866;SDS011;33628;50.806;11.586;2022-11-06T12:03:59;7.13;;;2.70;;
47866;SDS011;33628;50.806;11.586;2022-11-06T12:06:26;5.68;;;3.15;;
47866;SDS011;33628;50.806;11.586;2022-11-06T12:08:53;5.10;;;2.60;;
47866;SDS011;33628;50.806;11.586;2022-11-06T12:11:21;4.38;;;3.05;;
47866;SDS011;33628;50.806;11.586;2022-11-06T12:16:44;8.18;;;2.70;;
47866;SDS011;33628;50.806;11.586;2022-11-06T12:19:13;5.63;;;3.35;;
47866;SDS011;33628;50.806;11.586;2022-11-06T12:21:40;7.00;;;2.90;;
47866;SDS011;33628;50.806;11.586;2022-11-06T12:24:09;6.00;;;3.05;;
47866;SDS011;33628;50.806;11.586;2022-11-06T12:26:42;4.60;;;3.47;;
47866;SDS011;33628;50.806;11.586;2022-11-06T12:29:11;4.88;;;2.60;;
47866;SDS011;33628;50.806;11.586;2022-11-06T12:31:46;6.40;;;3.45;;
47866;SDS011;33628;50.806;11.586;2022-11-06T12:34:18;5.40;;;3.63;;
47866;SDS011;33628;50.806;11.586;2022-11-06T12:36:58;4.88;;;3.28;;
47866;SDS011;33628;50.806;11.586;2022-11-06T12:39:36;4.35;;;2.90;;
47866;SDS011;33628;50.806;11.586;2022-11-06T12:42:06;3.83;;;2.85;;
47866;SDS011;33628;50.806;11.586;2022-11-06T12:44:36;6.10;;;3.47;;
47866;SDS011;33628;50.806;11.586;2022-11-06T12:47:11;5.95;;;2.97;;
47866;SDS011;33628;50.806;11.586;2022-11-06T12:52:45;7.38;;;3.42;;
47866;SDS011;33628;50.806;11.586;2022-11-06T12:55:21;3.42;;;3.08;;
47866;SDS011;33628;50.806;11.586;2022-11-06T12:57:55;3.83;;;3.10;;
47866;SDS011;33628;50.806;11.586;2022-11-06T13:00:31;4.47;;;3.10;;
47866;SDS011;33628;50.806;11.586;2022-11-06T13:03:13;8.23;;;3.75;;
47866;SDS011;33628;50.806;11.586;2022-11-06T13:05:51;10.83;;;3.63;;
47866;SDS011;33628;50.806;11.586;2022-11-06T13:08:24;4.55;;;2.80;;
47866;SDS011;33628;50.806;11.586;2022-11-06T13:11:05;7.13;;;3.87;;
47866;SDS011;33628;50.806;11.586;2022-11-06T13:13:42;7.55;;;3.17;;
47866;SDS011;33628;50.806;11.586;2022-11-06T13:16:17;3.80;;;2.80;;
47866;SDS011;33628;50.806;11.586;2022-11-06T13:18:49;4.68;;;2.85;;
47866;SDS011;33628;50.806;11.586;2022-11-06T13:21:20;3.53;;;2.65;;
47866;SDS011;33628;50.806;11.586;2022-11-06T13:23:50;6.10;;;3.63;;
47866;SDS011;33628;50.806;11.586;2022-11-06T13:26:20;2.70;;;2.38;;
47866;SDS011;33628;50.806;11.586;2022-11-06T13:28:52;5.68;;;2.97;;
47866;SDS011;33628;50.806;11.586;2022-11-06T13:31:24;5.97;;;2.95;;
47866;SDS011;33628;50.806;11.586;2022-11-06T13:33:55;4.28;;;2.95;;
47866;SDS011;33628;50.806;11.586;2022-11-06T13:36:23;4.07;;;3.40;;
47866;SDS011;33628;50.806;11.586;2022-11-06T13:38:52;7.68;;;3.75;;
47866;SDS011;33628;50.806;11.586;2022-11-06T13:41:21;4.18;;;3.05;;
47866;SDS011;33628;50.806;11.586;2022-11-06T13:43:50;4.53;;;3.42;;
47866;SDS011;33628;50.806;11.586;2022-11-06T13:46:22;3.75;;;2.83;;
47866;SDS011;33628;50.806;11.586;2022-11-06T13:48:54;3.40;;;2.65;;
47866;SDS011;33628;50.806;11.586;2022-11-06T13:51:31;4.75;;;2.70;;
47866;SDS011;33628;50.806;11.586;2022-11-06T13:54:02;5.18;;;2.80;;
47866;SDS011;33628;50.806;11.586;2022-11-06T14:02:28;4.82;;;2.90;;
47866;SDS011;33628;50.806;11.586;2022-11-06T14:08:15;5.10;;;3.38;;
47866;SDS011;33628;50.806;11.586;2022-11-06T14:10:47;3.92;;;2.92;;
47866;SDS011;33628;50.806;11.586;2022-11-06T14:13:16;5.40;;;3.28;;
47866;SDS011;33628;50.806;11.586;2022-11-06T14:15:57;5.45;;;3.20;;
47866;SDS011;33628;50.806;11.586;2022-11-06T14:22:37;6.05;;;3.88;;
47866;SDS011;33628;50.806;11.586;2022-11-06T14:28:28;7.50;;;4.13;;
47866;SDS011;33628;50.806;11.586;2022-11-06T14:30:55;6.10;;;4.55;;
47866;SDS011;33628;50.806;11.586;2022-11-06T14:36:30;5.70;;;3.00;;
47866;SDS011;33628;50.806;11.586;2022-11-06T14:42:27;4.85;;;3.67;;
47866;SDS011;33628;50.806;11.586;2022-11-06T14:44:57;8.68;;;4.47;;
47866;SDS011;33628;50.806;11.586;2022-11-06T14:47:30;5.03;;;3.30;;
47866;SDS011;33628;50.806;11.586;2022-11-06T14:50:01;5.28;;;3.20;;
47866;SDS011;33628;50.806;11.586;2022-11-06T14:52:36;4.43;;;3.42;;
47866;SDS011;33628;50.806;11.586;2022-11-06T14:55:06;3.28;;;2.95;;
47866;SDS011;33628;50.806;11.586;2022-11-06T14:57:43;5.30;;;3.03;;
47866;SDS011;33628;50.806;11.586;2022-11-06T15:00:15;6.18;;;3.55;;
47866;SDS011;33628;50.806;11.586;2022-11-06T15:03:03;8.02;;;4.55;;
47866;SDS011;33628;50.806;11.586;2022-11-06T15:05:34;8.82;;;4.30;;
47866;SDS011;33628;50.806;11.586;2022-11-06T15:08:04;7.22;;;3.90;;
47866;SDS011;33628;50.806;11.586;2022-11-06T15:10:47;4.15;;;3.50;;
47866;SDS011;33628;50.806;11.586;2022-11-06T15:13:25;3.92;;;3.05;;
47866;SDS011;33628;50.806;11.586;2022-11-06T15:15:59;7.68;;;3.00;;
47866;SDS011;33628;50.806;11.586;2022-11-06T15:18:34;5.18;;;3.28;;
47866;SDS011;33628;50.806;11.586;2022-11-06T15:21:03;6.57;;;3.72;;
47866;SDS011;33628;50.806;11.586;2022-11-06T15:23:37;4.85;;;3.55;;
47866;SDS011;33628;50.806;11.586;2022-11-06T15:26:13;6.00;;;4.15;;
47866;SDS011;33628;50.806;11.586;2022-11-06T15:28:47;7.63;;;4.03;;
47866;SDS011;33628;50.806;11.586;2022-11-06T15:31:20;5.88;;;4.07;;
47866;SDS011;33628;50.806;11.586;2022-11-06T15:33:53;6.85;;;4.00;;
47866;SDS011;33628;50.806;11.586;2022-11-06T15:36:25;5.35;;;3.80;;
47866;SDS011;33628;50.806;11.586;2022-11-06T15:38:54;6.40;;;4.55;;
47866;SDS011;33628;50.806;11.586;2022-11-06T15:41:22;8.50;;;4.47;;
47866;SDS011;33628;50.806;11.586;2022-11-06T15:43:50;7.45;;;4.22;;